URO661 LEZL-LFML
Flight info
| Callsign | URO661 |
|---|---|
| Flight time | 1h 41m |
| Altitude | 38000 |
| Route | BUDIT M445 SOPET DCT DIKUT DCT TORDU DCT LOTOS DCT EBROX DCT PEXOT DCT RODRA DCT BCN N870 FEVIK/N0435F300 N870 DIBER UN870 SOSUR |
| Aircraft | A346/H-SDE2E3FGHIJ3J4J5M1RWXY/LB1D1 |
Departure
| Time | 2026-03-26 12:04 |
|---|---|
| Airport | Seville Airport (LEZL) |
Arrival
| Time | 2026-03-26 13:45 |
|---|---|
| Airport | Marseille Provence Airport (LFML) |
| Time | Latitude | Longitude | Altitude | Speed | Heading |
|---|---|---|---|---|---|
| 2026-03-26 11:40 | 37.42132 | -5.90049 | 102 ft | 0 kts | 9° |
| 2026-03-26 11:56 | 37.42122 | -5.90051 | 103 ft | 3 kts | 8° |
| 2026-03-26 11:56 | 37.42102 | -5.90054 | 104 ft | 3 kts | 6° |
| 2026-03-26 11:56 | 37.42088 | -5.90056 | 104 ft | 2 kts | 5° |
| 2026-03-26 11:57 | 37.42070 | -5.90056 | 104 ft | 3 kts | 348° |
| 2026-03-26 11:57 | 37.42057 | -5.90050 | 105 ft | 3 kts | 322° |
| 2026-03-26 11:57 | 37.42050 | -5.90041 | 103 ft | 3 kts | 288° |
| 2026-03-26 11:57 | 37.42049 | -5.90023 | 102 ft | 3 kts | 264° |
| 2026-03-26 11:58 | 37.42051 | -5.89997 | 102 ft | 3 kts | 263° |
| 2026-03-26 11:58 | 37.42053 | -5.89975 | 102 ft | 2 kts | 269° |
| 2026-03-26 11:58 | 37.42053 | -5.89967 | 102 ft | 0 kts | 270° |
| 2026-03-26 12:00 | 37.42053 | -5.89972 | 102 ft | 2 kts | 270° |
| 2026-03-26 12:00 | 37.42053 | -5.90022 | 102 ft | 9 kts | 270° |
| 2026-03-26 12:00 | 37.42044 | -5.90084 | 103 ft | 6 kts | 218° |
| 2026-03-26 12:01 | 37.41996 | -5.90102 | 106 ft | 6 kts | 213° |
| 2026-03-26 12:01 | 37.41980 | -5.90173 | 104 ft | 13 kts | 268° |
| 2026-03-26 12:01 | 37.41980 | -5.90310 | 103 ft | 18 kts | 270° |
| 2026-03-26 12:01 | 37.41979 | -5.90482 | 102 ft | 21 kts | 270° |
| 2026-03-26 12:02 | 37.41978 | -5.90683 | 101 ft | 24 kts | 270° |
| 2026-03-26 12:02 | 37.41977 | -5.90887 | 99 ft | 19 kts | 269° |
| 2026-03-26 12:02 | 37.41923 | -5.91046 | 101 ft | 22 kts | 239° |
| 2026-03-26 12:02 | 37.41859 | -5.91171 | 101 ft | 11 kts | 219° |
| 2026-03-26 12:03 | 37.41796 | -5.91169 | 100 ft | 6 kts | 133° |
| 2026-03-26 12:03 | 37.41787 | -5.91081 | 102 ft | 24 kts | 90° |
| 2026-03-26 12:03 | 37.41790 | -5.90578 | 104 ft | 90 kts | 89° |
| 2026-03-26 12:03 | 37.41794 | -5.89539 | 108 ft | 146 kts | 90° |
| 2026-03-26 12:04 | 37.41784 | -5.88133 | 468 ft | 164 kts | 88° |
| 2026-03-26 12:04 | 37.41778 | -5.86714 | 1260 ft | 161 kts | 88° |
| 2026-03-26 12:04 | 37.41798 | -5.85271 | 1791 ft | 171 kts | 87° |
| 2026-03-26 12:04 | 37.41826 | -5.83703 | 2212 ft | 187 kts | 86° |
| 2026-03-26 12:05 | 37.41924 | -5.82023 | 2745 ft | 196 kts | 81° |
| 2026-03-26 12:05 | 37.42162 | -5.80290 | 3230 ft | 209 kts | 79° |
| 2026-03-26 12:05 | 37.42449 | -5.78402 | 3667 ft | 229 kts | 79° |
| 2026-03-26 12:05 | 37.42845 | -5.76394 | 4276 ft | 242 kts | 73° |
| 2026-03-26 12:06 | 37.43441 | -5.74372 | 5072 ft | 249 kts | 68° |
| 2026-03-26 12:06 | 37.44138 | -5.72352 | 5976 ft | 253 kts | 67° |
| 2026-03-26 12:06 | 37.44849 | -5.70319 | 6930 ft | 254 kts | 66° |
| 2026-03-26 12:06 | 37.45570 | -5.68261 | 7765 ft | 260 kts | 66° |
| 2026-03-26 12:07 | 37.46308 | -5.66155 | 8626 ft | 265 kts | 66° |
| 2026-03-26 12:07 | 37.47058 | -5.64018 | 9595 ft | 267 kts | 66° |
| 2026-03-26 12:07 | 37.47813 | -5.61857 | 10455 ft | 272 kts | 66° |
| 2026-03-26 12:07 | 37.48599 | -5.59613 | 11037 ft | 288 kts | 66° |
| 2026-03-26 12:08 | 37.49423 | -5.57262 | 11516 ft | 306 kts | 66° |
| 2026-03-26 12:08 | 37.50319 | -5.54699 | 11997 ft | 324 kts | 66° |
| 2026-03-26 12:08 | 37.51239 | -5.52065 | 12488 ft | 340 kts | 66° |
| 2026-03-26 12:08 | 37.52204 | -5.49298 | 13267 ft | 347 kts | 66° |
| 2026-03-26 12:09 | 37.53186 | -5.46480 | 14119 ft | 352 kts | 66° |
| 2026-03-26 12:09 | 37.54174 | -5.43636 | 14954 ft | 355 kts | 66° |
| 2026-03-26 12:09 | 37.55171 | -5.40766 | 15761 ft | 359 kts | 66° |
| 2026-03-26 12:09 | 37.56178 | -5.37860 | 16565 ft | 363 kts | 66° |
| 2026-03-26 12:10 | 37.57197 | -5.34920 | 17381 ft | 367 kts | 66° |
| 2026-03-26 12:10 | 37.58225 | -5.31953 | 18194 ft | 370 kts | 66° |
| 2026-03-26 12:10 | 37.59256 | -5.28952 | 18803 ft | 375 kts | 67° |
| 2026-03-26 12:10 | 37.60106 | -5.25834 | 19155 ft | 377 kts | 73° |
| 2026-03-26 12:11 | 37.60672 | -5.22634 | 19509 ft | 380 kts | 79° |
| 2026-03-26 12:11 | 37.60993 | -5.19315 | 19868 ft | 382 kts | 83° |
| 2026-03-26 12:11 | 37.61238 | -5.15965 | 20244 ft | 385 kts | 83° |
| 2026-03-26 12:11 | 37.61474 | -5.12565 | 20764 ft | 391 kts | 83° |
| 2026-03-26 12:12 | 37.61708 | -5.09140 | 21533 ft | 391 kts | 83° |
| 2026-03-26 12:12 | 37.61944 | -5.05705 | 22285 ft | 394 kts | 83° |
| 2026-03-26 12:12 | 37.62182 | -5.02237 | 22966 ft | 398 kts | 83° |
| 2026-03-26 12:12 | 37.62423 | -4.98740 | 23597 ft | 402 kts | 83° |
| 2026-03-26 12:13 | 37.62666 | -4.95204 | 24145 ft | 406 kts | 83° |
| 2026-03-26 12:13 | 37.62910 | -4.91641 | 24686 ft | 409 kts | 83° |
| 2026-03-26 12:13 | 37.63156 | -4.88035 | 25219 ft | 413 kts | 83° |
| 2026-03-26 12:13 | 37.63404 | -4.84400 | 25777 ft | 417 kts | 83° |
| 2026-03-26 12:14 | 37.63652 | -4.80735 | 26331 ft | 420 kts | 83° |
| 2026-03-26 12:14 | 37.63900 | -4.77040 | 26878 ft | 424 kts | 83° |
| 2026-03-26 12:14 | 37.64150 | -4.73314 | 27429 ft | 428 kts | 83° |
| 2026-03-26 12:14 | 37.64401 | -4.69549 | 27970 ft | 431 kts | 83° |
| 2026-03-26 12:15 | 37.64653 | -4.65757 | 28492 ft | 435 kts | 83° |
| 2026-03-26 12:15 | 37.64906 | -4.61929 | 29013 ft | 439 kts | 83° |
| 2026-03-26 12:15 | 37.65156 | -4.58119 | 29508 ft | 442 kts | 83° |
| 2026-03-26 12:15 | 37.65410 | -4.54229 | 29999 ft | 446 kts | 83° |
| 2026-03-26 12:16 | 37.65666 | -4.50297 | 30395 ft | 450 kts | 83° |
| 2026-03-26 12:16 | 37.65921 | -4.46352 | 30920 ft | 450 kts | 83° |
| 2026-03-26 12:16 | 37.66174 | -4.42420 | 31558 ft | 448 kts | 83° |
| 2026-03-26 12:16 | 37.66423 | -4.38509 | 32212 ft | 446 kts | 83° |
| 2026-03-26 12:17 | 37.66587 | -4.35928 | 32633 ft | 445 kts | 83° |
| 2026-03-26 12:17 | 37.66833 | -4.32038 | 33243 ft | 443 kts | 83° |
| 2026-03-26 12:17 | 37.67078 | -4.28155 | 33805 ft | 442 kts | 83° |
| 2026-03-26 12:17 | 37.67321 | -4.24288 | 34310 ft | 442 kts | 83° |
| 2026-03-26 12:18 | 37.67563 | -4.20413 | 34767 ft | 442 kts | 83° |
| 2026-03-26 12:18 | 37.67804 | -4.16543 | 35191 ft | 442 kts | 83° |
| 2026-03-26 12:18 | 37.68043 | -4.12663 | 35583 ft | 442 kts | 83° |
| 2026-03-26 12:18 | 37.68282 | -4.08777 | 35955 ft | 443 kts | 83° |
| 2026-03-26 12:19 | 37.68516 | -4.04936 | 36304 ft | 444 kts | 83° |
| 2026-03-26 12:19 | 37.68754 | -4.01031 | 36636 ft | 446 kts | 83° |
| 2026-03-26 12:19 | 37.68991 | -3.97112 | 36914 ft | 448 kts | 83° |
| 2026-03-26 12:19 | 37.69226 | -3.93178 | 37173 ft | 450 kts | 83° |
| 2026-03-26 12:20 | 37.69464 | -3.89221 | 37419 ft | 452 kts | 83° |
| 2026-03-26 12:20 | 37.69699 | -3.85247 | 37675 ft | 454 kts | 83° |
| 2026-03-26 12:20 | 37.69937 | -3.81251 | 37900 ft | 456 kts | 84° |
| 2026-03-26 12:20 | 37.70173 | -3.77235 | 38016 ft | 460 kts | 84° |
| 2026-03-26 12:21 | 37.70644 | -3.69082 | 38022 ft | 462 kts | 84° |
| 2026-03-26 12:21 | 37.71105 | -3.61026 | 38021 ft | 462 kts | 84° |
| 2026-03-26 12:22 | 37.71570 | -3.52896 | 38085 ft | 467 kts | 84° |
| 2026-03-26 12:22 | 37.71802 | -3.48799 | 38374 ft | 467 kts | 84° |
| 2026-03-26 12:22 | 37.72032 | -3.44709 | 38701 ft | 466 kts | 84° |
| 2026-03-26 12:23 | 37.72260 | -3.40610 | 38954 ft | 466 kts | 84° |
| 2026-03-26 12:23 | 37.72486 | -3.36529 | 39176 ft | 466 kts | 84° |
| 2026-03-26 12:23 | 37.72710 | -3.32431 | 39353 ft | 467 kts | 84° |
| 2026-03-26 12:23 | 37.72933 | -3.28330 | 39520 ft | 467 kts | 84° |
| 2026-03-26 12:24 | 37.73154 | -3.24229 | 39712 ft | 467 kts | 84° |
| 2026-03-26 12:24 | 37.73375 | -3.20124 | 39909 ft | 467 kts | 84° |
| 2026-03-26 12:24 | 37.73593 | -3.16025 | 40011 ft | 467 kts | 84° |
| 2026-03-26 12:24 | 37.73810 | -3.11931 | 40015 ft | 466 kts | 84° |
| 2026-03-26 12:25 | 37.74239 | -3.03749 | 40019 ft | 466 kts | 84° |
| 2026-03-26 12:25 | 37.74665 | -2.95519 | 40018 ft | 469 kts | 84° |
| 2026-03-26 12:26 | 37.75437 | -2.87341 | 40010 ft | 467 kts | 75° |
| 2026-03-26 12:26 | 37.77508 | -2.79583 | 40007 ft | 465 kts | 63° |
| 2026-03-26 12:27 | 37.80819 | -2.72602 | 40009 ft | 462 kts | 51° |
| 2026-03-26 12:27 | 37.85090 | -2.66534 | 40013 ft | 461 kts | 45° |
| 2026-03-26 12:28 | 37.89520 | -2.60712 | 40017 ft | 463 kts | 45° |
| 2026-03-26 12:28 | 37.93984 | -2.54810 | 40024 ft | 463 kts | 45° |
| 2026-03-26 12:29 | 37.98425 | -2.48902 | 40026 ft | 462 kts | 45° |
| 2026-03-26 12:29 | 38.02860 | -2.42984 | 40034 ft | 462 kts | 45° |
| 2026-03-26 12:30 | 38.07289 | -2.37056 | 40040 ft | 462 kts | 45° |
| 2026-03-26 12:30 | 38.11709 | -2.31125 | 40041 ft | 462 kts | 45° |
| 2026-03-26 12:31 | 38.16135 | -2.25171 | 40053 ft | 464 kts | 45° |
| 2026-03-26 12:31 | 38.20522 | -2.19186 | 40062 ft | 465 kts | 47° |
| 2026-03-26 12:32 | 38.24616 | -2.12789 | 40064 ft | 466 kts | 50° |
| 2026-03-26 12:32 | 38.28625 | -2.06295 | 40072 ft | 466 kts | 50° |
| 2026-03-26 12:33 | 38.32634 | -1.99792 | 40070 ft | 466 kts | 50° |
| 2026-03-26 12:33 | 38.36642 | -1.93291 | 40072 ft | 466 kts | 50° |
| 2026-03-26 12:34 | 38.40651 | -1.86785 | 40075 ft | 467 kts | 50° |
| 2026-03-26 12:34 | 38.44667 | -1.80255 | 40067 ft | 468 kts | 50° |
| 2026-03-26 12:35 | 38.48682 | -1.73709 | 40069 ft | 468 kts | 50° |
| 2026-03-26 12:35 | 38.52688 | -1.67162 | 40067 ft | 468 kts | 50° |
| 2026-03-26 12:36 | 38.56693 | -1.60602 | 40067 ft | 468 kts | 50° |
| 2026-03-26 12:36 | 38.60699 | -1.54028 | 40064 ft | 468 kts | 50° |
| 2026-03-26 12:37 | 38.64678 | -1.47481 | 40075 ft | 469 kts | 50° |
| 2026-03-26 12:37 | 38.68708 | -1.40834 | 40062 ft | 469 kts | 50° |
| 2026-03-26 12:38 | 38.72712 | -1.34224 | 40063 ft | 469 kts | 50° |
| 2026-03-26 12:38 | 38.76688 | -1.27659 | 40062 ft | 469 kts | 50° |
| 2026-03-26 12:39 | 38.80682 | -1.21047 | 40063 ft | 469 kts | 50° |
| 2026-03-26 12:39 | 38.84678 | -1.14413 | 40064 ft | 469 kts | 50° |
| 2026-03-26 12:40 | 38.88671 | -1.07770 | 40059 ft | 470 kts | 50° |
| 2026-03-26 12:40 | 38.92674 | -1.01097 | 40061 ft | 472 kts | 50° |
| 2026-03-26 12:41 | 38.96679 | -0.94402 | 40056 ft | 472 kts | 50° |
| 2026-03-26 12:41 | 39.00674 | -0.87709 | 40066 ft | 472 kts | 50° |
| 2026-03-26 12:42 | 39.04699 | -0.81126 | 40061 ft | 470 kts | 47° |
| 2026-03-26 12:42 | 39.09194 | -0.75012 | 40072 ft | 468 kts | 40° |
| 2026-03-26 12:43 | 39.14109 | -0.69523 | 40072 ft | 467 kts | 37° |
| 2026-03-26 12:43 | 39.19127 | -0.64203 | 40064 ft | 466 kts | 37° |
| 2026-03-26 12:44 | 39.24125 | -0.58884 | 40070 ft | 466 kts | 37° |
| 2026-03-26 12:44 | 39.29154 | -0.53599 | 40071 ft | 465 kts | 35° |
| 2026-03-26 12:45 | 39.34325 | -0.48563 | 40070 ft | 465 kts | 34° |
| 2026-03-26 12:45 | 39.39490 | -0.43554 | 40083 ft | 463 kts | 34° |
| 2026-03-26 12:46 | 39.44639 | -0.38547 | 40082 ft | 462 kts | 34° |
| 2026-03-26 12:46 | 39.49780 | -0.33534 | 40082 ft | 462 kts | 34° |
| 2026-03-26 12:47 | 39.54927 | -0.28502 | 40080 ft | 462 kts | 34° |
| 2026-03-26 12:47 | 39.60093 | -0.23442 | 40091 ft | 462 kts | 34° |
| 2026-03-26 12:48 | 39.65196 | -0.18362 | 40069 ft | 462 kts | 38° |
| 2026-03-26 12:48 | 39.69697 | -0.12332 | 40082 ft | 467 kts | 49° |
| 2026-03-26 12:49 | 39.73557 | -0.05517 | 40080 ft | 468 kts | 52° |
| 2026-03-26 12:49 | 39.77349 | 0.01374 | 40079 ft | 468 kts | 51° |
| 2026-03-26 12:50 | 39.81167 | 0.08207 | 40089 ft | 469 kts | 51° |
| 2026-03-26 12:50 | 39.85029 | 0.15057 | 40076 ft | 468 kts | 51° |
| 2026-03-26 12:51 | 39.88881 | 0.21909 | 40073 ft | 468 kts | 51° |
| 2026-03-26 12:51 | 39.92720 | 0.28765 | 40071 ft | 468 kts | 51° |
| 2026-03-26 12:52 | 39.96549 | 0.35637 | 40066 ft | 468 kts | 51° |
| 2026-03-26 12:52 | 40.00369 | 0.42536 | 40073 ft | 471 kts | 51° |
| 2026-03-26 12:53 | 40.04211 | 0.49494 | 40078 ft | 472 kts | 51° |
| 2026-03-26 12:53 | 40.08035 | 0.56438 | 40072 ft | 470 kts | 51° |
| 2026-03-26 12:54 | 40.11853 | 0.63377 | 40070 ft | 470 kts | 51° |
| 2026-03-26 12:54 | 40.15669 | 0.70330 | 40067 ft | 470 kts | 51° |
| 2026-03-26 12:55 | 40.21385 | 0.80766 | 40077 ft | 472 kts | 51° |
| 2026-03-26 12:56 | 40.25215 | 0.87778 | 40083 ft | 473 kts | 51° |
| 2026-03-26 12:56 | 40.29020 | 0.94772 | 40072 ft | 469 kts | 50° |
| 2026-03-26 12:57 | 40.32803 | 1.01732 | 40064 ft | 468 kts | 50° |
| 2026-03-26 12:57 | 40.36559 | 1.08661 | 40064 ft | 468 kts | 50° |
| 2026-03-26 12:58 | 40.40332 | 1.15636 | 40083 ft | 468 kts | 50° |
| 2026-03-26 12:58 | 40.44111 | 1.22637 | 40067 ft | 470 kts | 50° |
| 2026-03-26 12:59 | 40.47897 | 1.29664 | 40071 ft | 470 kts | 50° |
| 2026-03-26 12:59 | 40.51019 | 1.35480 | 40066 ft | 467 kts | 50° |
| 2026-03-26 13:00 | 40.54763 | 1.42454 | 40053 ft | 466 kts | 50° |
| 2026-03-26 13:00 | 40.58501 | 1.49432 | 40048 ft | 466 kts | 50° |
| 2026-03-26 13:01 | 40.62232 | 1.56425 | 40069 ft | 467 kts | 50° |
| 2026-03-26 13:01 | 40.65980 | 1.63460 | 40060 ft | 468 kts | 50° |
| 2026-03-26 13:02 | 40.69722 | 1.70493 | 40065 ft | 468 kts | 50° |
| 2026-03-26 13:02 | 40.73464 | 1.77543 | 40062 ft | 468 kts | 50° |
| 2026-03-26 13:03 | 40.77168 | 1.84545 | 40063 ft | 469 kts | 50° |
| 2026-03-26 13:03 | 40.80898 | 1.91615 | 40084 ft | 469 kts | 50° |
| 2026-03-26 13:04 | 40.84641 | 1.98716 | 40069 ft | 472 kts | 50° |
| 2026-03-26 13:04 | 40.88394 | 2.05849 | 40063 ft | 472 kts | 50° |
| 2026-03-26 13:05 | 40.92128 | 2.12980 | 40071 ft | 469 kts | 50° |
| 2026-03-26 13:05 | 40.95843 | 2.20079 | 40066 ft | 469 kts | 50° |
| 2026-03-26 13:06 | 40.99551 | 2.27183 | 40063 ft | 469 kts | 50° |
| 2026-03-26 13:06 | 41.03251 | 2.34297 | 40071 ft | 469 kts | 49° |
| 2026-03-26 13:07 | 41.07035 | 2.41568 | 40056 ft | 469 kts | 49° |
| 2026-03-26 13:07 | 41.10743 | 2.48711 | 40072 ft | 469 kts | 49° |
| 2026-03-26 13:08 | 41.14423 | 2.55832 | 40059 ft | 466 kts | 49° |
| 2026-03-26 13:08 | 41.18069 | 2.62896 | 40051 ft | 466 kts | 49° |
| 2026-03-26 13:09 | 41.21733 | 2.70009 | 40064 ft | 467 kts | 49° |
| 2026-03-26 13:09 | 41.25416 | 2.77176 | 40048 ft | 469 kts | 49° |
| 2026-03-26 13:10 | 41.29095 | 2.84359 | 40043 ft | 470 kts | 50° |
| 2026-03-26 13:10 | 41.32775 | 2.91564 | 40054 ft | 469 kts | 49° |
| 2026-03-26 13:11 | 41.36442 | 2.98758 | 40044 ft | 469 kts | 49° |
| 2026-03-26 13:11 | 41.40114 | 3.05972 | 40063 ft | 469 kts | 49° |
| 2026-03-26 13:12 | 41.43781 | 3.13200 | 40046 ft | 471 kts | 49° |
| 2026-03-26 13:12 | 41.47457 | 3.20460 | 40037 ft | 472 kts | 49° |
| 2026-03-26 13:13 | 41.51104 | 3.27688 | 40040 ft | 472 kts | 49° |
| 2026-03-26 13:13 | 41.54764 | 3.34959 | 40044 ft | 470 kts | 49° |
| 2026-03-26 13:14 | 41.58420 | 3.42225 | 40046 ft | 470 kts | 49° |
| 2026-03-26 13:14 | 41.62064 | 3.49487 | 39967 ft | 467 kts | 49° |
| 2026-03-26 13:14 | 41.63856 | 3.53070 | 39714 ft | 460 kts | 49° |
| 2026-03-26 13:15 | 41.65621 | 3.56603 | 39410 ft | 455 kts | 49° |
| 2026-03-26 13:15 | 41.67383 | 3.60127 | 39007 ft | 455 kts | 49° |
| 2026-03-26 13:15 | 41.69147 | 3.63657 | 38449 ft | 456 kts | 49° |
| 2026-03-26 13:15 | 41.70911 | 3.67196 | 37866 ft | 456 kts | 49° |
| 2026-03-26 13:16 | 41.72670 | 3.70736 | 37312 ft | 456 kts | 48° |
| 2026-03-26 13:16 | 41.74424 | 3.74272 | 36770 ft | 454 kts | 47° |
| 2026-03-26 13:16 | 41.76173 | 3.77798 | 36205 ft | 454 kts | 47° |
| 2026-03-26 13:16 | 41.77917 | 3.81313 | 35696 ft | 453 kts | 47° |
| 2026-03-26 13:17 | 41.79659 | 3.84838 | 35115 ft | 453 kts | 46° |
| 2026-03-26 13:17 | 41.81404 | 3.88365 | 34556 ft | 453 kts | 46° |
| 2026-03-26 13:17 | 41.83150 | 3.91892 | 33964 ft | 454 kts | 45° |
| 2026-03-26 13:17 | 41.84872 | 3.95374 | 33324 ft | 453 kts | 45° |
| 2026-03-26 13:18 | 41.86635 | 3.98941 | 32671 ft | 451 kts | 45° |
| 2026-03-26 13:18 | 41.88384 | 4.02423 | 32009 ft | 450 kts | 45° |
| 2026-03-26 13:18 | 41.90125 | 4.05861 | 31354 ft | 450 kts | 45° |
| 2026-03-26 13:18 | 41.91888 | 4.09344 | 30731 ft | 451 kts | 45° |
| 2026-03-26 13:19 | 41.93676 | 4.12884 | 30005 ft | 452 kts | 45° |
| 2026-03-26 13:19 | 41.95443 | 4.16391 | 29182 ft | 453 kts | 45° |
| 2026-03-26 13:19 | 41.97207 | 4.19906 | 28615 ft | 452 kts | 45° |
| 2026-03-26 13:19 | 41.98927 | 4.23358 | 28123 ft | 447 kts | 45° |
| 2026-03-26 13:20 | 42.00662 | 4.26828 | 27683 ft | 442 kts | 44° |
| 2026-03-26 13:20 | 42.02369 | 4.30237 | 27239 ft | 436 kts | 44° |
| 2026-03-26 13:20 | 42.04053 | 4.33603 | 26802 ft | 431 kts | 44° |
| 2026-03-26 13:20 | 42.05721 | 4.36929 | 26366 ft | 424 kts | 43° |
| 2026-03-26 13:21 | 42.07481 | 4.40055 | 25928 ft | 413 kts | 39° |
| 2026-03-26 13:21 | 42.09360 | 4.42910 | 25509 ft | 402 kts | 34° |
| 2026-03-26 13:21 | 42.11342 | 4.45500 | 25163 ft | 391 kts | 31° |
| 2026-03-26 13:21 | 42.13349 | 4.47935 | 24755 ft | 386 kts | 30° |
| 2026-03-26 13:22 | 42.15341 | 4.50329 | 24378 ft | 381 kts | 30° |
| 2026-03-26 13:22 | 42.17313 | 4.52694 | 23941 ft | 377 kts | 30° |
| 2026-03-26 13:22 | 42.19265 | 4.55040 | 23535 ft | 374 kts | 30° |
| 2026-03-26 13:22 | 42.21197 | 4.57366 | 23069 ft | 370 kts | 30° |
| 2026-03-26 13:23 | 42.23109 | 4.59679 | 22686 ft | 367 kts | 30° |
| 2026-03-26 13:23 | 42.25000 | 4.61964 | 22239 ft | 363 kts | 29° |
| 2026-03-26 13:23 | 42.26877 | 4.64230 | 21798 ft | 359 kts | 29° |
| 2026-03-26 13:23 | 42.28730 | 4.66468 | 21397 ft | 356 kts | 29° |
| 2026-03-26 13:24 | 42.30566 | 4.68690 | 20978 ft | 352 kts | 29° |
| 2026-03-26 13:24 | 42.32385 | 4.70892 | 20613 ft | 348 kts | 29° |
| 2026-03-26 13:24 | 42.34183 | 4.73071 | 20194 ft | 345 kts | 29° |
| 2026-03-26 13:24 | 42.35960 | 4.75227 | 19809 ft | 341 kts | 29° |
| 2026-03-26 13:25 | 42.37785 | 4.77123 | 19495 ft | 326 kts | 17° |
| 2026-03-26 13:25 | 42.39835 | 4.78341 | 19263 ft | 322 kts | 14° |
| 2026-03-26 13:25 | 42.41870 | 4.79623 | 19026 ft | 322 kts | 15° |
| 2026-03-26 13:25 | 42.43885 | 4.80926 | 18787 ft | 320 kts | 16° |
| 2026-03-26 13:26 | 42.45884 | 4.82224 | 18549 ft | 319 kts | 16° |
| 2026-03-26 13:26 | 42.47886 | 4.83525 | 18313 ft | 317 kts | 16° |
| 2026-03-26 13:26 | 42.49873 | 4.84817 | 18039 ft | 316 kts | 16° |
| 2026-03-26 13:26 | 42.51850 | 4.86102 | 17808 ft | 314 kts | 16° |
| 2026-03-26 13:27 | 42.53817 | 4.87378 | 17529 ft | 311 kts | 17° |
| 2026-03-26 13:27 | 42.55767 | 4.88650 | 17230 ft | 310 kts | 17° |
| 2026-03-26 13:27 | 42.57715 | 4.89920 | 16978 ft | 310 kts | 17° |
| 2026-03-26 13:27 | 42.59666 | 4.91193 | 16719 ft | 311 kts | 17° |
| 2026-03-26 13:28 | 42.61615 | 4.92466 | 16306 ft | 310 kts | 17° |
| 2026-03-26 13:28 | 42.63554 | 4.93734 | 15769 ft | 309 kts | 17° |
| 2026-03-26 13:28 | 42.65475 | 4.94989 | 15191 ft | 311 kts | 17° |
| 2026-03-26 13:28 | 42.67436 | 4.96261 | 14575 ft | 315 kts | 18° |
| 2026-03-26 13:29 | 42.69445 | 4.97566 | 13751 ft | 324 kts | 19° |
| 2026-03-26 13:29 | 42.71478 | 4.98902 | 13153 ft | 323 kts | 20° |
| 2026-03-26 13:29 | 42.73496 | 5.00235 | 12513 ft | 323 kts | 20° |
| 2026-03-26 13:29 | 42.75528 | 5.01576 | 11866 ft | 323 kts | 20° |
| 2026-03-26 13:30 | 42.77548 | 5.02908 | 11313 ft | 321 kts | 21° |
| 2026-03-26 13:30 | 42.79550 | 5.04228 | 10837 ft | 317 kts | 21° |
| 2026-03-26 13:30 | 42.81497 | 5.05517 | 10607 ft | 305 kts | 21° |
| 2026-03-26 13:30 | 42.83375 | 5.06759 | 10388 ft | 294 kts | 21° |
| 2026-03-26 13:31 | 42.85178 | 5.07951 | 10186 ft | 283 kts | 21° |
| 2026-03-26 13:31 | 42.86916 | 5.09101 | 10028 ft | 271 kts | 20° |
| 2026-03-26 13:31 | 42.88570 | 5.10194 | 9999 ft | 256 kts | 20° |
| 2026-03-26 13:31 | 42.90117 | 5.11217 | 9871 ft | 246 kts | 20° |
| 2026-03-26 13:32 | 42.91628 | 5.12215 | 9663 ft | 237 kts | 20° |
| 2026-03-26 13:32 | 42.93097 | 5.13184 | 9386 ft | 233 kts | 20° |
| 2026-03-26 13:32 | 42.94555 | 5.14145 | 8964 ft | 233 kts | 20° |
| 2026-03-26 13:32 | 42.96012 | 5.15108 | 8576 ft | 232 kts | 19° |
| 2026-03-26 13:33 | 42.97459 | 5.16066 | 8221 ft | 231 kts | 19° |
| 2026-03-26 13:33 | 42.98905 | 5.17021 | 7802 ft | 231 kts | 19° |
| 2026-03-26 13:33 | 43.00359 | 5.17983 | 7442 ft | 231 kts | 18° |
| 2026-03-26 13:33 | 43.01802 | 5.18940 | 7094 ft | 229 kts | 18° |
| 2026-03-26 13:34 | 43.03235 | 5.19888 | 6721 ft | 229 kts | 18° |
| 2026-03-26 13:34 | 43.04679 | 5.20841 | 6327 ft | 231 kts | 17° |
| 2026-03-26 13:34 | 43.06117 | 5.21798 | 6077 ft | 226 kts | 17° |
| 2026-03-26 13:34 | 43.07508 | 5.22725 | 5870 ft | 219 kts | 17° |
| 2026-03-26 13:35 | 43.08855 | 5.23620 | 5687 ft | 211 kts | 17° |
| 2026-03-26 13:35 | 43.10153 | 5.24485 | 5512 ft | 204 kts | 16° |
| 2026-03-26 13:35 | 43.11403 | 5.25319 | 5354 ft | 196 kts | 16° |
| 2026-03-26 13:35 | 43.12612 | 5.26120 | 5191 ft | 190 kts | 16° |
| 2026-03-26 13:36 | 43.13779 | 5.26897 | 5024 ft | 183 kts | 15° |
| 2026-03-26 13:36 | 43.14906 | 5.27647 | 4845 ft | 177 kts | 15° |
| 2026-03-26 13:36 | 43.15993 | 5.28371 | 4717 ft | 175 kts | 15° |
| 2026-03-26 13:36 | 43.17092 | 5.29097 | 4574 ft | 176 kts | 15° |
| 2026-03-26 13:37 | 43.18197 | 5.29828 | 4448 ft | 175 kts | 15° |
| 2026-03-26 13:37 | 43.19258 | 5.30543 | 4349 ft | 164 kts | 15° |
| 2026-03-26 13:37 | 43.20252 | 5.31212 | 4179 ft | 155 kts | 14° |
| 2026-03-26 13:37 | 43.21199 | 5.31847 | 4001 ft | 148 kts | 14° |
| 2026-03-26 13:38 | 43.22110 | 5.32447 | 3843 ft | 143 kts | 10° |
| 2026-03-26 13:38 | 43.23046 | 5.32810 | 3656 ft | 137 kts | 1° |
| 2026-03-26 13:38 | 43.23977 | 5.32900 | 3494 ft | 132 kts | 355° |
| 2026-03-26 13:38 | 43.24891 | 5.32893 | 3337 ft | 130 kts | 354° |
| 2026-03-26 13:39 | 43.25791 | 5.32882 | 3199 ft | 130 kts | 354° |
| 2026-03-26 13:39 | 43.26695 | 5.32867 | 3073 ft | 130 kts | 354° |
| 2026-03-26 13:39 | 43.27599 | 5.32850 | 2984 ft | 130 kts | 354° |
| 2026-03-26 13:39 | 43.28508 | 5.32832 | 2993 ft | 130 kts | 354° |
| 2026-03-26 13:40 | 43.29392 | 5.32719 | 2973 ft | 129 kts | 348° |
| 2026-03-26 13:40 | 43.30277 | 5.32446 | 2971 ft | 128 kts | 344° |
| 2026-03-26 13:40 | 43.31118 | 5.32134 | 2819 ft | 126 kts | 345° |
| 2026-03-26 13:40 | 43.31960 | 5.31823 | 2615 ft | 125 kts | 345° |
| 2026-03-26 13:41 | 43.32797 | 5.31516 | 2462 ft | 124 kts | 344° |
| 2026-03-26 13:41 | 43.33634 | 5.31206 | 2342 ft | 124 kts | 344° |
| 2026-03-26 13:41 | 43.34465 | 5.30894 | 2229 ft | 124 kts | 343° |
| 2026-03-26 13:41 | 43.35303 | 5.30577 | 2150 ft | 125 kts | 343° |
| 2026-03-26 13:42 | 43.36141 | 5.30260 | 2078 ft | 125 kts | 343° |
| 2026-03-26 13:42 | 43.36983 | 5.29947 | 2046 ft | 125 kts | 341° |
| 2026-03-26 13:42 | 43.37795 | 5.29536 | 1896 ft | 125 kts | 332° |
| 2026-03-26 13:42 | 43.38473 | 5.28780 | 1774 ft | 125 kts | 321° |
| 2026-03-26 13:43 | 43.38879 | 5.28222 | 1692 ft | 124 kts | 321° |
| 2026-03-26 13:43 | 43.39682 | 5.27100 | 1403 ft | 122 kts | 322° |
| 2026-03-26 13:43 | 43.40276 | 5.26265 | 1230 ft | 121 kts | 323° |
| 2026-03-26 13:43 | 43.40871 | 5.25445 | 988 ft | 121 kts | 322° |
| 2026-03-26 13:44 | 43.41466 | 5.24624 | 755 ft | 121 kts | 321° |
| 2026-03-26 13:44 | 43.42053 | 5.23794 | 475 ft | 120 kts | 316° |
| 2026-03-26 13:44 | 43.42630 | 5.22978 | 258 ft | 119 kts | 315° |
| 2026-03-26 13:44 | 43.43187 | 5.22184 | 84 ft | 112 kts | 318° |
| 2026-03-26 13:45 | 43.43669 | 5.21502 | 45 ft | 81 kts | 315° |
| 2026-03-26 13:45 | 43.43941 | 5.21119 | 45 ft | 33 kts | 314° |
| 2026-03-26 13:45 | 43.44024 | 5.21000 | 44 ft | 23 kts | 314° |
| 2026-03-26 13:45 | 43.44132 | 5.20848 | 43 ft | 18 kts | 314° |
| 2026-03-26 13:46 | 43.44212 | 5.20763 | 44 ft | 12 kts | 346° |
| 2026-03-26 13:46 | 43.44284 | 5.20788 | 45 ft | 9 kts | 40° |
| 2026-03-26 13:46 | 43.44310 | 5.20873 | 45 ft | 11 kts | 101° |
| 2026-03-26 13:46 | 43.44271 | 5.20977 | 45 ft | 14 kts | 126° |
| 2026-03-26 13:47 | 43.44208 | 5.21078 | 45 ft | 8 kts | 132° |
| 2026-03-26 13:47 | 43.44195 | 5.21161 | 45 ft | 12 kts | 71° |
| 2026-03-26 13:47 | 43.44240 | 5.21273 | 46 ft | 15 kts | 60° |
| 2026-03-26 13:47 | 43.44292 | 5.21404 | 46 ft | 17 kts | 62° |
| 2026-03-26 13:48 | 43.44343 | 5.21532 | 45 ft | 15 kts | 61° |
| 2026-03-26 13:48 | 43.44381 | 5.21617 | 46 ft | 7 kts | 47° |
| 2026-03-26 13:48 | 43.44427 | 5.21661 | 46 ft | 9 kts | 23° |
| 2026-03-26 13:48 | 43.44492 | 5.21701 | 46 ft | 10 kts | 31° |
| 2026-03-26 13:49 | 43.44547 | 5.21750 | 46 ft | 6 kts | 33° |
| 2026-03-26 13:49 | 43.44587 | 5.21766 | 46 ft | 6 kts | 349° |
| 2026-03-26 13:49 | 43.44614 | 5.21743 | 46 ft | 4 kts | 322° |
| 2026-03-26 13:49 | 43.44626 | 5.21732 | 46 ft | 1 kts | 326° |
| 2026-03-26 13:50 | 43.44631 | 5.21728 | 46 ft | 1 kts | 325° |
| 2026-03-26 13:50 | 43.44633 | 5.21726 | 46 ft | 0 kts | 325° |